Terminal Aerodrome Forecast
Issued by NWS Detroit/Pontiac, MI

Home | Current Version | Previous Version | Text Only | Print | Product List | Glossary On
Versions: 1 2 3 4 5 6 7 8 9 10 11 12 13 14 15 16 17 18 19 20 21 22 23 24 25 26 27
000
FTUS43 KDTX 252323
TAFDTW
TAF
KDTW 252323Z 2600/2706 23008KT P6SM OVC025
     FM261300 06005KT P6SM SCT030 SCT250
     FM261900 03005KT P6SM SCT040 BKN150
     FM270100 30005KT P6SM BKN040 OVC150=

USA.gov is the U.S. government's official web portal to all federal, state and local government web resources and services.